sensor_id;sensor_type;location;lat;lon;timestamp;P1;durP1;ratioP1;P2;durP2;ratioP2
5345;SDS011;2695;49.444;11.054;2023-07-20T00:01:11;7.13;;;3.97;;
5345;SDS011;2695;49.444;11.054;2023-07-20T00:03:40;6.27;;;3.40;;
5345;SDS011;2695;49.444;11.054;2023-07-20T00:06:09;5.23;;;3.40;;
5345;SDS011;2695;49.444;11.054;2023-07-20T00:08:37;6.57;;;3.57;;
5345;SDS011;2695;49.444;11.054;2023-07-20T00:11:05;7.57;;;3.43;;
5345;SDS011;2695;49.444;11.054;2023-07-20T00:13:33;6.33;;;3.27;;
5345;SDS011;2695;49.444;11.054;2023-07-20T00:16:01;6.23;;;3.33;;
5345;SDS011;2695;49.444;11.054;2023-07-20T00:18:29;5.03;;;3.17;;
5345;SDS011;2695;49.444;11.054;2023-07-20T00:20:58;5.83;;;3.90;;
5345;SDS011;2695;49.444;11.054;2023-07-20T00:23:27;9.37;;;4.00;;
5345;SDS011;2695;49.444;11.054;2023-07-20T00:25:55;5.53;;;3.40;;
5345;SDS011;2695;49.444;11.054;2023-07-20T00:28:23;5.40;;;3.70;;
5345;SDS011;2695;49.444;11.054;2023-07-20T00:30:51;5.73;;;3.50;;
5345;SDS011;2695;49.444;11.054;2023-07-20T00:33:20;5.43;;;4.23;;
5345;SDS011;2695;49.444;11.054;2023-07-20T00:35:48;8.63;;;3.27;;
5345;SDS011;2695;49.444;11.054;2023-07-20T00:38:17;6.30;;;3.70;;
5345;SDS011;2695;49.444;11.054;2023-07-20T00:40:45;5.67;;;3.63;;
5345;SDS011;2695;49.444;11.054;2023-07-20T00:43:14;6.13;;;4.40;;
5345;SDS011;2695;49.444;11.054;2023-07-20T00:45:42;5.67;;;3.37;;
5345;SDS011;2695;49.444;11.054;2023-07-20T00:48:11;7.10;;;4.20;;
5345;SDS011;2695;49.444;11.054;2023-07-20T00:50:41;4.90;;;3.47;;
5345;SDS011;2695;49.444;11.054;2023-07-20T00:53:09;5.10;;;3.80;;
5345;SDS011;2695;49.444;11.054;2023-07-20T00:55:39;5.23;;;3.60;;
5345;SDS011;2695;49.444;11.054;2023-07-20T00:58:07;3.80;;;3.27;;
5345;SDS011;2695;49.444;11.054;2023-07-20T01:00:35;7.03;;;4.30;;
5345;SDS011;2695;49.444;11.054;2023-07-20T01:03:03;5.47;;;3.90;;
5345;SDS011;2695;49.444;11.054;2023-07-20T01:05:34;11.07;;;4.43;;
5345;SDS011;2695;49.444;11.054;2023-07-20T01:08:09;5.10;;;3.53;;
5345;SDS011;2695;49.444;11.054;2023-07-20T01:10:49;6.07;;;3.50;;
5345;SDS011;2695;49.444;11.054;2023-07-20T01:13:21;7.23;;;4.17;;
5345;SDS011;2695;49.444;11.054;2023-07-20T01:15:50;11.83;;;4.30;;
5345;SDS011;2695;49.444;11.054;2023-07-20T01:18:23;9.50;;;3.80;;
5345;SDS011;2695;49.444;11.054;2023-07-20T01:20:51;10.37;;;4.73;;
5345;SDS011;2695;49.444;11.054;2023-07-20T01:23:31;6.83;;;3.67;;
5345;SDS011;2695;49.444;11.054;2023-07-20T01:26:32;8.93;;;4.07;;
5345;SDS011;2695;49.444;11.054;2023-07-20T01:29:22;6.90;;;4.20;;
5345;SDS011;2695;49.444;11.054;2023-07-20T01:32:04;5.03;;;3.40;;
5345;SDS011;2695;49.444;11.054;2023-07-20T01:34:36;5.30;;;3.57;;
5345;SDS011;2695;49.444;11.054;2023-07-20T01:37:05;7.00;;;3.80;;
5345;SDS011;2695;49.444;11.054;2023-07-20T01:39:34;8.10;;;4.27;;
5345;SDS011;2695;49.444;11.054;2023-07-20T01:42:04;6.97;;;4.03;;
5345;SDS011;2695;49.444;11.054;2023-07-20T01:44:32;5.97;;;4.07;;
5345;SDS011;2695;49.444;11.054;2023-07-20T01:47:00;5.00;;;3.43;;
5345;SDS011;2695;49.444;11.054;2023-07-20T01:49:29;5.00;;;4.00;;
5345;SDS011;2695;49.444;11.054;2023-07-20T01:51:57;4.40;;;3.30;;
5345;SDS011;2695;49.444;11.054;2023-07-20T01:54:25;4.87;;;3.10;;
5345;SDS011;2695;49.444;11.054;2023-07-20T01:56:53;4.80;;;3.83;;
5345;SDS011;2695;49.444;11.054;2023-07-20T01:59:21;9.03;;;4.73;;
5345;SDS011;2695;49.444;11.054;2023-07-20T02:01:49;5.03;;;3.40;;
5345;SDS011;2695;49.444;11.054;2023-07-20T02:04:17;7.27;;;3.87;;
5345;SDS011;2695;49.444;11.054;2023-07-20T02:06:47;6.63;;;4.57;;
5345;SDS011;2695;49.444;11.054;2023-07-20T02:09:15;10.33;;;3.87;;
5345;SDS011;2695;49.444;11.054;2023-07-20T02:11:43;5.10;;;3.77;;
5345;SDS011;2695;49.444;11.054;2023-07-20T02:14:11;7.33;;;3.47;;
5345;SDS011;2695;49.444;11.054;2023-07-20T02:16:39;13.63;;;3.70;;
5345;SDS011;2695;49.444;11.054;2023-07-20T02:22:14;4.43;;;3.50;;
5345;SDS011;2695;49.444;11.054;2023-07-20T02:24:43;5.60;;;4.03;;
5345;SDS011;2695;49.444;11.054;2023-07-20T02:27:11;9.63;;;3.87;;
5345;SDS011;2695;49.444;11.054;2023-07-20T02:29:40;9.20;;;4.30;;
5345;SDS011;2695;49.444;11.054;2023-07-20T02:32:08;7.73;;;4.37;;
5345;SDS011;2695;49.444;11.054;2023-07-20T02:34:37;4.53;;;3.93;;
5345;SDS011;2695;49.444;11.054;2023-07-20T02:37:05;6.40;;;3.97;;
5345;SDS011;2695;49.444;11.054;2023-07-20T02:39:38;9.27;;;4.67;;
5345;SDS011;2695;49.444;11.054;2023-07-20T02:42:06;7.70;;;4.80;;
5345;SDS011;2695;49.444;11.054;2023-07-20T02:44:34;15.93;;;5.00;;
5345;SDS011;2695;49.444;11.054;2023-07-20T02:47:03;8.10;;;3.70;;
5345;SDS011;2695;49.444;11.054;2023-07-20T02:49:31;9.67;;;4.30;;
5345;SDS011;2695;49.444;11.054;2023-07-20T02:51:59;7.10;;;3.90;;
5345;SDS011;2695;49.444;11.054;2023-07-20T02:54:28;6.30;;;4.23;;
5345;SDS011;2695;49.444;11.054;2023-07-20T02:56:58;11.80;;;4.83;;
5345;SDS011;2695;49.444;11.054;2023-07-20T02:59:27;5.40;;;3.80;;
5345;SDS011;2695;49.444;11.054;2023-07-20T03:01:55;12.53;;;4.20;;
5345;SDS011;2695;49.444;11.054;2023-07-20T03:04:25;8.43;;;4.40;;
5345;SDS011;2695;49.444;11.054;2023-07-20T03:06:53;7.17;;;4.00;;
5345;SDS011;2695;49.444;11.054;2023-07-20T03:09:21;14.30;;;3.43;;
5345;SDS011;2695;49.444;11.054;2023-07-20T03:11:49;5.83;;;3.43;;
5345;SDS011;2695;49.444;11.054;2023-07-20T03:14:19;6.53;;;4.07;;
5345;SDS011;2695;49.444;11.054;2023-07-20T03:16:47;5.60;;;3.77;;
5345;SDS011;2695;49.444;11.054;2023-07-20T03:19:15;8.10;;;3.93;;
5345;SDS011;2695;49.444;11.054;2023-07-20T03:24:45;5.07;;;3.70;;
5345;SDS011;2695;49.444;11.054;2023-07-20T03:27:13;5.90;;;3.90;;
5345;SDS011;2695;49.444;11.054;2023-07-20T03:29:42;9.20;;;3.80;;
5345;SDS011;2695;49.444;11.054;2023-07-20T03:32:11;9.03;;;3.53;;
5345;SDS011;2695;49.444;11.054;2023-07-20T03:34:39;7.30;;;3.77;;
5345;SDS011;2695;49.444;11.054;2023-07-20T03:37:08;7.70;;;3.90;;
5345;SDS011;2695;49.444;11.054;2023-07-20T03:39:36;6.83;;;3.20;;
5345;SDS011;2695;49.444;11.054;2023-07-20T03:42:04;6.13;;;3.83;;
5345;SDS011;2695;49.444;11.054;2023-07-20T03:44:32;8.00;;;3.67;;
5345;SDS011;2695;49.444;11.054;2023-07-20T03:47:02;5.23;;;3.80;;
5345;SDS011;2695;49.444;11.054;2023-07-20T03:49:31;11.87;;;3.93;;
5345;SDS011;2695;49.444;11.054;2023-07-20T03:52:00;9.97;;;3.27;;
5345;SDS011;2695;49.444;11.054;2023-07-20T03:54:29;5.97;;;3.30;;
5345;SDS011;2695;49.444;11.054;2023-07-20T03:56:57;14.97;;;3.83;;
5345;SDS011;2695;49.444;11.054;2023-07-20T03:59:26;7.93;;;3.57;;
5345;SDS011;2695;49.444;11.054;2023-07-20T04:01:54;7.43;;;4.10;;
5345;SDS011;2695;49.444;11.054;2023-07-20T04:04:24;5.40;;;3.03;;
5345;SDS011;2695;49.444;11.054;2023-07-20T04:06:52;6.10;;;3.43;;
5345;SDS011;2695;49.444;11.054;2023-07-20T04:09:19;4.60;;;4.00;;
5345;SDS011;2695;49.444;11.054;2023-07-20T04:11:47;3.80;;;3.50;;
5345;SDS011;2695;49.444;11.054;2023-07-20T04:14:15;5.57;;;3.90;;
5345;SDS011;2695;49.444;11.054;2023-07-20T04:16:45;6.23;;;4.10;;
5345;SDS011;2695;49.444;11.054;2023-07-20T04:19:15;9.80;;;4.00;;
5345;SDS011;2695;49.444;11.054;2023-07-20T04:25:21;5.97;;;3.93;;
5345;SDS011;2695;49.444;11.054;2023-07-20T04:27:49;10.23;;;4.07;;
5345;SDS011;2695;49.444;11.054;2023-07-20T04:36:31;7.33;;;3.50;;
5345;SDS011;2695;49.444;11.054;2023-07-20T04:38:59;6.87;;;3.57;;
5345;SDS011;2695;49.444;11.054;2023-07-20T04:41:28;8.20;;;3.40;;
5345;SDS011;2695;49.444;11.054;2023-07-20T04:43:59;11.63;;;3.87;;
5345;SDS011;2695;49.444;11.054;2023-07-20T04:46:28;11.50;;;3.30;;
5345;SDS011;2695;49.444;11.054;2023-07-20T04:48:56;10.70;;;4.17;;
5345;SDS011;2695;49.444;11.054;2023-07-20T04:51:24;7.27;;;3.60;;
5345;SDS011;2695;49.444;11.054;2023-07-20T04:53:52;11.30;;;3.60;;
5345;SDS011;2695;49.444;11.054;2023-07-20T04:56:20;14.40;;;4.33;;
5345;SDS011;2695;49.444;11.054;2023-07-20T04:58:51;11.47;;;4.20;;
5345;SDS011;2695;49.444;11.054;2023-07-20T05:01:19;7.83;;;3.63;;
5345;SDS011;2695;49.444;11.054;2023-07-20T05:03:47;8.90;;;3.83;;
5345;SDS011;2695;49.444;11.054;2023-07-20T05:09:05;12.97;;;3.63;;
5345;SDS011;2695;49.444;11.054;2023-07-20T05:11:34;6.15;;;3.67;;
5345;SDS011;2695;49.444;11.054;2023-07-20T05:14:03;9.85;;;4.30;;
5345;SDS011;2695;49.444;11.054;2023-07-20T05:16:31;9.68;;;3.17;;
5345;SDS011;2695;49.444;11.054;2023-07-20T05:18:59;10.70;;;3.60;;
5345;SDS011;2695;49.444;11.054;2023-07-20T05:21:28;7.38;;;3.20;;
5345;SDS011;2695;49.444;11.054;2023-07-20T05:27:40;6.78;;;3.60;;
5345;SDS011;2695;49.444;11.054;2023-07-20T05:30:10;8.77;;;3.28;;
5345;SDS011;2695;49.444;11.054;2023-07-20T05:32:38;6.57;;;3.35;;
5345;SDS011;2695;49.444;11.054;2023-07-20T05:39:08;13.48;;;3.78;;
5345;SDS011;2695;49.444;11.054;2023-07-20T05:41:36;12.70;;;3.40;;
5345;SDS011;2695;49.444;11.054;2023-07-20T05:44:03;5.80;;;3.00;;
5345;SDS011;2695;49.444;11.054;2023-07-20T05:46:37;4.80;;;2.85;;
5345;SDS011;2695;49.444;11.054;2023-07-20T05:49:23;5.65;;;3.97;;
5345;SDS011;2695;49.444;11.054;2023-07-20T05:51:51;4.68;;;2.85;;
5345;SDS011;2695;49.444;11.054;2023-07-20T05:54:19;9.63;;;5.15;;
5345;SDS011;2695;49.444;11.054;2023-07-20T05:56:47;10.68;;;4.18;;
5345;SDS011;2695;49.444;11.054;2023-07-20T05:59:18;12.18;;;3.00;;
5345;SDS011;2695;49.444;11.054;2023-07-20T06:01:48;13.02;;;3.20;;
5345;SDS011;2695;49.444;11.054;2023-07-20T06:04:28;8.98;;;3.42;;
5345;SDS011;2695;49.444;11.054;2023-07-20T06:09:34;6.47;;;2.75;;
5345;SDS011;2695;49.444;11.054;2023-07-20T06:12:03;9.40;;;2.80;;
5345;SDS011;2695;49.444;11.054;2023-07-20T06:14:47;3.05;;;2.65;;
5345;SDS011;2695;49.444;11.054;2023-07-20T06:17:16;8.65;;;3.22;;
5345;SDS011;2695;49.444;11.054;2023-07-20T06:19:44;6.32;;;2.42;;
5345;SDS011;2695;49.444;11.054;2023-07-20T06:22:12;5.93;;;2.63;;
5345;SDS011;2695;49.444;11.054;2023-07-20T06:27:58;8.80;;;3.28;;
5345;SDS011;2695;49.444;11.054;2023-07-20T06:30:26;7.18;;;2.60;;
5345;SDS011;2695;49.444;11.054;2023-07-20T06:32:55;7.28;;;2.55;;
5345;SDS011;2695;49.444;11.054;2023-07-20T06:39:15;3.58;;;2.83;;
5345;SDS011;2695;49.444;11.054;2023-07-20T06:41:46;4.82;;;2.75;;
5345;SDS011;2695;49.444;11.054;2023-07-20T06:44:14;4.50;;;2.88;;
5345;SDS011;2695;49.444;11.054;2023-07-20T06:46:42;3.80;;;2.38;;
5345;SDS011;2695;49.444;11.054;2023-07-20T06:49:15;5.20;;;2.55;;
5345;SDS011;2695;49.444;11.054;2023-07-20T06:55:15;5.88;;;3.30;;
5345;SDS011;2695;49.444;11.054;2023-07-20T06:57:49;9.30;;;2.80;;
5345;SDS011;2695;49.444;11.054;2023-07-20T07:00:18;6.10;;;2.65;;
5345;SDS011;2695;49.444;11.054;2023-07-20T07:02:46;8.85;;;2.70;;
5345;SDS011;2695;49.444;11.054;2023-07-20T07:05:18;10.20;;;2.83;;
5345;SDS011;2695;49.444;11.054;2023-07-20T07:07:47;3.97;;;2.50;;
5345;SDS011;2695;49.444;11.054;2023-07-20T07:10:15;4.07;;;2.85;;
5345;SDS011;2695;49.444;11.054;2023-07-20T07:12:44;6.68;;;2.40;;
5345;SDS011;2695;49.444;11.054;2023-07-20T07:15:12;2.50;;;2.30;;
5345;SDS011;2695;49.444;11.054;2023-07-20T07:17:40;3.15;;;2.50;;
5345;SDS011;2695;49.444;11.054;2023-07-20T07:20:10;5.50;;;2.20;;
5345;SDS011;2695;49.444;11.054;2023-07-20T07:22:49;3.90;;;2.55;;
5345;SDS011;2695;49.444;11.054;2023-07-20T07:25:18;6.40;;;2.40;;
5345;SDS011;2695;49.444;11.054;2023-07-20T07:27:49;4.15;;;1.95;;
5345;SDS011;2695;49.444;11.054;2023-07-20T07:30:18;3.72;;;2.03;;
5345;SDS011;2695;49.444;11.054;2023-07-20T07:32:46;2.47;;;1.90;;
5345;SDS011;2695;49.444;11.054;2023-07-20T07:35:14;6.72;;;2.85;;
5345;SDS011;2695;49.444;11.054;2023-07-20T07:37:42;11.25;;;2.90;;
5345;SDS011;2695;49.444;11.054;2023-07-20T07:40:33;5.60;;;2.55;;
5345;SDS011;2695;49.444;11.054;2023-07-20T07:43:01;4.18;;;2.42;;
5345;SDS011;2695;49.444;11.054;2023-07-20T07:48:23;3.70;;;2.13;;
5345;SDS011;2695;49.444;11.054;2023-07-20T07:50:51;5.28;;;2.55;;
5345;SDS011;2695;49.444;11.054;2023-07-20T07:53:20;4.05;;;2.20;;
5345;SDS011;2695;49.444;11.054;2023-07-20T07:55:50;3.75;;;2.33;;
5345;SDS011;2695;49.444;11.054;2023-07-20T07:58:18;4.70;;;2.20;;
5345;SDS011;2695;49.444;11.054;2023-07-20T08:00:52;2.97;;;1.83;;
5345;SDS011;2695;49.444;11.054;2023-07-20T08:03:19;6.43;;;2.38;;
5345;SDS011;2695;49.444;11.054;2023-07-20T08:05:48;4.22;;;2.22;;
5345;SDS011;2695;49.444;11.054;2023-07-20T08:08:17;4.93;;;2.50;;
5345;SDS011;2695;49.444;11.054;2023-07-20T08:10:46;3.30;;;2.28;;
5345;SDS011;2695;49.444;11.054;2023-07-20T08:13:15;4.85;;;2.30;;
5345;SDS011;2695;49.444;11.054;2023-07-20T08:15:45;2.97;;;1.70;;
5345;SDS011;2695;49.444;11.054;2023-07-20T08:18:16;5.70;;;2.28;;
5345;SDS011;2695;49.444;11.054;2023-07-20T08:20:44;5.28;;;2.75;;
5345;SDS011;2695;49.444;11.054;2023-07-20T08:23:13;4.32;;;2.15;;
5345;SDS011;2695;49.444;11.054;2023-07-20T08:25:41;3.03;;;1.85;;
5345;SDS011;2695;49.444;11.054;2023-07-20T08:28:10;5.47;;;1.92;;
5345;SDS011;2695;49.444;11.054;2023-07-20T08:30:41;7.70;;;2.75;;
5345;SDS011;2695;49.444;11.054;2023-07-20T08:33:10;2.85;;;1.75;;
5345;SDS011;2695;49.444;11.054;2023-07-20T08:35:40;2.40;;;1.95;;
5345;SDS011;2695;49.444;11.054;2023-07-20T08:38:08;5.13;;;2.10;;
5345;SDS011;2695;49.444;11.054;2023-07-20T08:40:39;6.20;;;2.33;;
5345;SDS011;2695;49.444;11.054;2023-07-20T08:43:07;5.97;;;1.98;;
5345;SDS011;2695;49.444;11.054;2023-07-20T08:45:36;2.38;;;1.88;;
5345;SDS011;2695;49.444;11.054;2023-07-20T08:48:08;4.15;;;2.30;;
5345;SDS011;2695;49.444;11.054;2023-07-20T08:50:37;4.75;;;1.95;;
5345;SDS011;2695;49.444;11.054;2023-07-20T08:53:06;3.42;;;1.98;;
5345;SDS011;2695;49.444;11.054;2023-07-20T08:55:35;2.85;;;1.75;;
5345;SDS011;2695;49.444;11.054;2023-07-20T08:58:04;2.80;;;1.80;;
5345;SDS011;2695;49.444;11.054;2023-07-20T09:00:35;2.60;;;1.75;;
5345;SDS011;2695;49.444;11.054;2023-07-20T09:03:05;2.65;;;1.75;;
5345;SDS011;2695;49.444;11.054;2023-07-20T09:05:35;4.38;;;2.03;;
5345;SDS011;2695;49.444;11.054;2023-07-20T09:08:03;2.20;;;1.70;;
5345;SDS011;2695;49.444;11.054;2023-07-20T09:10:31;2.72;;;2.03;;
5345;SDS011;2695;49.444;11.054;2023-07-20T09:12:59;4.28;;;1.70;;
5345;SDS011;2695;49.444;11.054;2023-07-20T09:15:28;4.60;;;1.95;;
5345;SDS011;2695;49.444;11.054;2023-07-20T09:17:58;5.90;;;1.67;;
5345;SDS011;2695;49.444;11.054;2023-07-20T09:20:32;4.72;;;1.98;;
5345;SDS011;2695;49.444;11.054;2023-07-20T09:23:03;4.38;;;1.60;;
5345;SDS011;2695;49.444;11.054;2023-07-20T09:25:32;4.93;;;1.88;;
5345;SDS011;2695;49.444;11.054;2023-07-20T09:28:02;2.15;;;1.95;;
5345;SDS011;2695;49.444;11.054;2023-07-20T09:30:31;2.78;;;1.80;;
5345;SDS011;2695;49.444;11.054;2023-07-20T09:32:59;1.42;;;1.33;;
5345;SDS011;2695;49.444;11.054;2023-07-20T09:35:28;2.72;;;1.60;;
5345;SDS011;2695;49.444;11.054;2023-07-20T09:38:09;2.90;;;1.60;;
5345;SDS011;2695;49.444;11.054;2023-07-20T09:40:40;1.83;;;1.60;;
5345;SDS011;2695;49.444;11.054;2023-07-20T09:43:12;3.03;;;1.70;;
5345;SDS011;2695;49.444;11.054;2023-07-20T09:45:46;2.67;;;1.55;;
5345;SDS011;2695;49.444;11.054;2023-07-20T09:48:17;3.40;;;1.90;;
5345;SDS011;2695;49.444;11.054;2023-07-20T09:50:51;3.05;;;1.73;;
5345;SDS011;2695;49.444;11.054;2023-07-20T09:53:21;3.42;;;1.30;;
5345;SDS011;2695;49.444;11.054;2023-07-20T09:55:52;1.52;;;1.42;;
5345;SDS011;2695;49.444;11.054;2023-07-20T09:58:21;3.35;;;1.40;;
5345;SDS011;2695;49.444;11.054;2023-07-20T10:00:50;2.28;;;1.38;;
5345;SDS011;2695;49.444;11.054;2023-07-20T10:03:25;1.95;;;1.23;;
5345;SDS011;2695;49.444;11.054;2023-07-20T10:06:05;3.47;;;1.70;;
5345;SDS011;2695;49.444;11.054;2023-07-20T10:08:40;2.25;;;1.55;;
5345;SDS011;2695;49.444;11.054;2023-07-20T10:11:11;2.13;;;1.38;;
5345;SDS011;2695;49.444;11.054;2023-07-20T10:13:43;2.75;;;1.70;;
5345;SDS011;2695;49.444;11.054;2023-07-20T10:16:14;1.40;;;1.30;;
5345;SDS011;2695;49.444;11.054;2023-07-20T10:18:49;2.78;;;2.03;;
5345;SDS011;2695;49.444;11.054;2023-07-20T10:21:25;1.40;;;1.10;;
5345;SDS011;2695;49.444;11.054;2023-07-20T10:23:57;1.75;;;1.40;;
5345;SDS011;2695;49.444;11.054;2023-07-20T10:26:28;2.25;;;1.60;;
5345;SDS011;2695;49.444;11.054;2023-07-20T10:28:56;2.00;;;1.42;;
5345;SDS011;2695;49.444;11.054;2023-07-20T10:31:24;1.67;;;1.33;;
5345;SDS011;2695;49.444;11.054;2023-07-20T10:33:56;1.30;;;1.20;;
5345;SDS011;2695;49.444;11.054;2023-07-20T10:36:25;4.88;;;1.40;;
5345;SDS011;2695;49.444;11.054;2023-07-20T10:38:58;2.30;;;1.38;;
5345;SDS011;2695;49.444;11.054;2023-07-20T10:41:28;2.97;;;1.30;;
5345;SDS011;2695;49.444;11.054;2023-07-20T10:44:00;2.33;;;1.52;;
5345;SDS011;2695;49.444;11.054;2023-07-20T10:46:34;2.13;;;1.30;;
5345;SDS011;2695;49.444;11.054;2023-07-20T10:49:10;5.72;;;1.63;;
5345;SDS011;2695;49.444;11.054;2023-07-20T10:51:39;2.40;;;2.20;;
5345;SDS011;2695;49.444;11.054;2023-07-20T10:54:10;6.70;;;1.75;;
5345;SDS011;2695;49.444;11.054;2023-07-20T10:57:21;2.33;;;1.42;;
5345;SDS011;2695;49.444;11.054;2023-07-20T10:59:50;3.55;;;1.58;;
5345;SDS011;2695;49.444;11.054;2023-07-20T11:02:18;5.00;;;1.33;;
5345;SDS011;2695;49.444;11.054;2023-07-20T11:04:47;1.58;;;1.30;;
5345;SDS011;2695;49.444;11.054;2023-07-20T11:07:16;1.80;;;1.52;;
5345;SDS011;2695;49.444;11.054;2023-07-20T11:09:46;3.53;;;1.58;;
5345;SDS011;2695;49.444;11.054;2023-07-20T11:12:17;2.28;;;1.80;;
5345;SDS011;2695;49.444;11.054;2023-07-20T11:14:52;3.45;;;1.55;;
5345;SDS011;2695;49.444;11.054;2023-07-20T11:17:28;3.67;;;1.75;;
5345;SDS011;2695;49.444;11.054;2023-07-20T11:19:57;1.33;;;1.23;;
5345;SDS011;2695;49.444;11.054;2023-07-20T11:22:30;1.67;;;1.20;;
5345;SDS011;2695;49.444;11.054;2023-07-20T11:25:00;2.30;;;1.55;;
5345;SDS011;2695;49.444;11.054;2023-07-20T11:27:29;7.07;;;1.40;;
5345;SDS011;2695;49.444;11.054;2023-07-20T11:29:57;1.50;;;1.35;;
5345;SDS011;2695;49.444;11.054;2023-07-20T11:32:25;4.55;;;1.70;;
5345;SDS011;2695;49.444;11.054;2023-07-20T11:34:53;2.53;;;1.52;;
5345;SDS011;2695;49.444;11.054;2023-07-20T11:37:21;1.48;;;1.38;;
5345;SDS011;2695;49.444;11.054;2023-07-20T11:39:56;2.95;;;1.20;;
5345;SDS011;2695;49.444;11.054;2023-07-20T11:42:25;1.98;;;1.17;;
5345;SDS011;2695;49.444;11.054;2023-07-20T11:44:56;2.20;;;1.55;;
5345;SDS011;2695;49.444;11.054;2023-07-20T11:47:28;2.05;;;1.30;;
5345;SDS011;2695;49.444;11.054;2023-07-20T11:49:56;3.60;;;2.08;;
5345;SDS011;2695;49.444;11.054;2023-07-20T11:52:31;2.65;;;1.27;;
5345;SDS011;2695;49.444;11.054;2023-07-20T11:55:02;2.97;;;1.45;;
5345;SDS011;2695;49.444;11.054;2023-07-20T11:57:33;1.35;;;1.25;;
5345;SDS011;2695;49.444;11.054;2023-07-20T12:00:02;3.13;;;1.80;;
5345;SDS011;2695;49.444;11.054;2023-07-20T12:02:35;1.98;;;1.33;;
5345;SDS011;2695;49.444;11.054;2023-07-20T12:05:04;1.58;;;1.48;;
5345;SDS011;2695;49.444;11.054;2023-07-20T12:07:35;1.95;;;1.80;;
5345;SDS011;2695;49.444;11.054;2023-07-20T12:10:07;3.97;;;1.30;;
5345;SDS011;2695;49.444;11.054;2023-07-20T12:12:39;4.97;;;1.27;;
5345;SDS011;2695;49.444;11.054;2023-07-20T12:15:14;4.90;;;1.10;;
5345;SDS011;2695;49.444;11.054;2023-07-20T12:17:49;1.60;;;1.20;;
5345;SDS011;2695;49.444;11.054;2023-07-20T12:20:25;2.70;;;1.60;;
5345;SDS011;2695;49.444;11.054;2023-07-20T12:22:55;3.22;;;1.48;;
5345;SDS011;2695;49.444;11.054;2023-07-20T12:25:32;7.97;;;1.52;;
5345;SDS011;2695;49.444;11.054;2023-07-20T12:28:02;1.80;;;1.13;;
5345;SDS011;2695;49.444;11.054;2023-07-20T12:30:32;3.25;;;1.63;;
5345;SDS011;2695;49.444;11.054;2023-07-20T12:33:00;1.50;;;1.33;;
5345;SDS011;2695;49.444;11.054;2023-07-20T12:35:29;2.60;;;1.77;;
5345;SDS011;2695;49.444;11.054;2023-07-20T12:38:00;1.25;;;1.00;;
5345;SDS011;2695;49.444;11.054;2023-07-20T12:40:28;1.67;;;1.27;;
5345;SDS011;2695;49.444;11.054;2023-07-20T12:42:57;2.63;;;1.90;;
5345;SDS011;2695;49.444;11.054;2023-07-20T12:45:26;3.20;;;1.20;;
5345;SDS011;2695;49.444;11.054;2023-07-20T12:47:54;1.77;;;1.48;;
5345;SDS011;2695;49.444;11.054;2023-07-20T12:50:22;2.28;;;1.33;;
5345;SDS011;2695;49.444;11.054;2023-07-20T12:52:50;4.43;;;1.60;;
5345;SDS011;2695;49.444;11.054;2023-07-20T12:55:18;1.40;;;1.27;;
5345;SDS011;2695;49.444;11.054;2023-07-20T12:57:46;4.03;;;1.40;;
5345;SDS011;2695;49.444;11.054;2023-07-20T13:00:15;2.78;;;1.42;;
5345;SDS011;2695;49.444;11.054;2023-07-20T13:02:45;2.80;;;1.40;;
5345;SDS011;2695;49.444;11.054;2023-07-20T13:05:13;2.08;;;1.42;;
5345;SDS011;2695;49.444;11.054;2023-07-20T13:07:42;3.47;;;1.65;;
5345;SDS011;2695;49.444;11.054;2023-07-20T13:10:12;2.05;;;1.58;;
5345;SDS011;2695;49.444;11.054;2023-07-20T13:12:41;2.78;;;1.83;;
5345;SDS011;2695;49.444;11.054;2023-07-20T13:15:10;2.83;;;1.40;;
5345;SDS011;2695;49.444;11.054;2023-07-20T13:17:38;5.13;;;1.75;;
5345;SDS011;2695;49.444;11.054;2023-07-20T13:20:09;2.75;;;1.75;;
5345;SDS011;2695;49.444;11.054;2023-07-20T13:22:38;2.05;;;1.50;;
5345;SDS011;2695;49.444;11.054;2023-07-20T13:25:07;2.88;;;1.58;;
5345;SDS011;2695;49.444;11.054;2023-07-20T13:27:35;1.60;;;1.50;;
5345;SDS011;2695;49.444;11.054;2023-07-20T13:30:05;2.13;;;1.33;;
5345;SDS011;2695;49.444;11.054;2023-07-20T13:32:36;3.92;;;1.77;;
5345;SDS011;2695;49.444;11.054;2023-07-20T13:35:11;2.03;;;1.50;;
5345;SDS011;2695;49.444;11.054;2023-07-20T13:37:39;3.25;;;1.88;;
5345;SDS011;2695;49.444;11.054;2023-07-20T13:40:07;2.20;;;1.23;;
5345;SDS011;2695;49.444;11.054;2023-07-20T13:42:38;3.50;;;1.30;;
5345;SDS011;2695;49.444;11.054;2023-07-20T13:45:08;1.50;;;1.40;;
5345;SDS011;2695;49.444;11.054;2023-07-20T13:47:36;3.50;;;1.55;;
5345;SDS011;2695;49.444;11.054;2023-07-20T13:50:05;3.90;;;2.53;;
5345;SDS011;2695;49.444;11.054;2023-07-20T13:52:36;3.33;;;1.30;;
5345;SDS011;2695;49.444;11.054;2023-07-20T13:55:07;1.70;;;1.60;;
5345;SDS011;2695;49.444;11.054;2023-07-20T13:57:36;2.97;;;1.70;;
5345;SDS011;2695;49.444;11.054;2023-07-20T14:00:04;4.00;;;1.42;;
5345;SDS011;2695;49.444;11.054;2023-07-20T14:02:35;1.45;;;1.35;;
5345;SDS011;2695;49.444;11.054;2023-07-20T14:05:07;6.25;;;4.00;;
5345;SDS011;2695;49.444;11.054;2023-07-20T14:07:40;3.15;;;1.77;;
5345;SDS011;2695;49.444;11.054;2023-07-20T14:10:09;1.58;;;1.48;;
5345;SDS011;2695;49.444;11.054;2023-07-20T14:12:40;2.28;;;1.50;;
5345;SDS011;2695;49.444;11.054;2023-07-20T14:15:09;1.60;;;1.30;;
5345;SDS011;2695;49.444;11.054;2023-07-20T14:17:40;1.90;;;1.60;;
5345;SDS011;2695;49.444;11.054;2023-07-20T14:20:11;1.45;;;1.35;;
5345;SDS011;2695;49.444;11.054;2023-07-20T14:22:43;1.83;;;1.30;;
5345;SDS011;2695;49.444;11.054;2023-07-20T14:25:15;2.75;;;1.85;;
5345;SDS011;2695;49.444;11.054;2023-07-20T14:27:50;3.08;;;1.67;;
5345;SDS011;2695;49.444;11.054;2023-07-20T14:30:22;3.28;;;1.20;;
5345;SDS011;2695;49.444;11.054;2023-07-20T14:32:53;1.85;;;1.40;;
5345;SDS011;2695;49.444;11.054;2023-07-20T14:35:21;6.35;;;1.83;;
5345;SDS011;2695;49.444;11.054;2023-07-20T14:37:53;2.42;;;1.60;;
5345;SDS011;2695;49.444;11.054;2023-07-20T14:40:21;1.90;;;1.48;;
5345;SDS011;2695;49.444;11.054;2023-07-20T14:42:49;3.35;;;1.67;;
5345;SDS011;2695;49.444;11.054;2023-07-20T14:45:18;1.92;;;1.70;;
5345;SDS011;2695;49.444;11.054;2023-07-20T14:47:46;1.58;;;1.30;;
5345;SDS011;2695;49.444;11.054;2023-07-20T14:50:20;2.42;;;1.60;;
5345;SDS011;2695;49.444;11.054;2023-07-20T14:52:48;3.28;;;1.30;;
5345;SDS011;2695;49.444;11.054;2023-07-20T14:55:18;1.88;;;1.40;;
5345;SDS011;2695;49.444;11.054;2023-07-20T14:57:46;4.93;;;1.45;;
5345;SDS011;2695;49.444;11.054;2023-07-20T15:04:01;3.08;;;1.42;;
5345;SDS011;2695;49.444;11.054;2023-07-20T15:06:29;4.68;;;1.88;;
5345;SDS011;2695;49.444;11.054;2023-07-20T15:12:21;4.75;;;1.25;;
5345;SDS011;2695;49.444;11.054;2023-07-20T15:14:51;2.55;;;1.30;;
5345;SDS011;2695;49.444;11.054;2023-07-20T15:17:40;3.13;;;1.65;;
5345;SDS011;2695;49.444;11.054;2023-07-20T15:20:10;3.70;;;1.48;;
5345;SDS011;2695;49.444;11.054;2023-07-20T15:22:40;1.40;;;1.30;;
5345;SDS011;2695;49.444;11.054;2023-07-20T15:25:09;1.95;;;1.38;;
5345;SDS011;2695;49.444;11.054;2023-07-20T15:27:39;4.55;;;1.90;;
5345;SDS011;2695;49.444;11.054;2023-07-20T15:30:16;2.47;;;1.58;;
5345;SDS011;2695;49.444;11.054;2023-07-20T15:32:47;4.47;;;1.85;;
5345;SDS011;2695;49.444;11.054;2023-07-20T15:35:18;3.95;;;3.33;;
5345;SDS011;2695;49.444;11.054;2023-07-20T15:37:46;10.18;;;1.75;;
5345;SDS011;2695;49.444;11.054;2023-07-20T15:40:14;4.10;;;1.90;;
5345;SDS011;2695;49.444;11.054;2023-07-20T15:42:43;3.13;;;1.98;;
5345;SDS011;2695;49.444;11.054;2023-07-20T15:45:19;3.25;;;1.77;;
5345;SDS011;2695;49.444;11.054;2023-07-20T15:47:47;13.68;;;6.80;;
5345;SDS011;2695;49.444;11.054;2023-07-20T15:50:15;4.05;;;1.70;;
5345;SDS011;2695;49.444;11.054;2023-07-20T15:52:47;7.13;;;4.35;;
5345;SDS011;2695;49.444;11.054;2023-07-20T15:55:16;4.45;;;2.65;;
5345;SDS011;2695;49.444;11.054;2023-07-20T15:57:48;5.32;;;2.55;;
5345;SDS011;2695;49.444;11.054;2023-07-20T16:00:17;5.22;;;2.58;;
5345;SDS011;2695;49.444;11.054;2023-07-20T16:02:46;2.92;;;2.33;;
5345;SDS011;2695;49.444;11.054;2023-07-20T16:05:15;2.17;;;1.80;;
5345;SDS011;2695;49.444;11.054;2023-07-20T16:07:43;3.15;;;2.40;;